Time;durP1;ratioP1;P1;durP2;ratioP2;P2;SDS_P1;SDS_P2;PMS_P1;PMS_P2;Temp;Humidity;BMP_temperature;BMP_pressure;BME280_temperature;BME280_humidity;BME280_pressure;Samples;Min_cycle;Max_cycle;Signal;HPM_P1;HPM_P2
2022/10/25 00:02:13;;;;;;;;;;;20.00;73.30;;;;;;5037035;28;19924;-63
2022/10/25 00:04:38;;;;;;;;;;;20.00;73.30;;;;;;5069533;28;20025;-62
2022/10/25 00:07:04;;;;;;;;;;;20.00;73.20;;;;;;5036767;28;19968;-62
2022/10/25 00:09:29;;;;;;;;;;;20.00;73.20;;;;;;5054107;28;19925;-63
2022/10/25 00:11:55;;;;;;;;;;;20.00;73.20;;;;;;5053199;28;19987;-63
2022/10/25 00:14:20;;;;;;;;;;;20.00;73.20;;;;;;5054678;28;19974;-62
2022/10/25 00:16:46;;;;;;;;;;;20.00;73.20;;;;;;5054973;28;19960;-62
2022/10/25 00:19:13;;;;;;;;;;;20.00;73.20;;;;;;5053963;28;19924;-63
2022/10/25 00:21:38;;;;;;;;;;;20.00;73.20;;;;;;5054748;28;19935;-62
2022/10/25 00:24:04;;;;;;;;;;;20.00;73.20;;;;;;5054555;28;20029;-63
2022/10/25 00:26:30;;;;;;;;;;;20.00;73.20;;;;;;5053436;28;19932;-62
2022/10/25 00:28:55;;;;;;;;;;;20.00;73.20;;;;;;5054502;28;19929;-62
2022/10/25 00:31:21;;;;;;;;;;;20.00;73.20;;;;;;5069888;28;19933;-63
2022/10/25 00:33:46;;;;;;;;;;;20.00;73.20;;;;;;5053672;28;19927;-63
2022/10/25 00:36:13;;;;;;;;;;;20.00;73.20;;;;;;5054215;28;19925;-62
2022/10/25 00:38:39;;;;;;;;;;;20.00;73.10;;;;;;5053688;28;20015;-62
2022/10/25 00:41:04;;;;;;;;;;;20.00;73.20;;;;;;5053962;28;20022;-63
2022/10/25 00:43:40;;;;;;;;;;;20.00;73.20;;;;;;5053894;28;19931;-63
2022/10/25 00:46:25;;;;;;;;;;;19.90;73.10;;;;;;5052715;28;19932;-63
2022/10/25 00:48:54;;;;;;;;;;;20.00;73.20;;;;;;5053523;28;20029;-62
2022/10/25 00:51:20;;;;;;;;;;;19.90;73.10;;;;;;5053738;28;19951;-62
2022/10/25 00:53:46;;;;;;;;;;;19.90;73.10;;;;;;5068262;28;20371;-62
2022/10/25 00:56:12;;;;;;;;;;;19.90;73.10;;;;;;5069072;28;19928;-63
2022/10/25 00:58:38;;;;;;;;;;;19.90;73.10;;;;;;5053532;28;20380;-62
2022/10/25 01:01:04;;;;;;;;;;;19.90;73.10;;;;;;5053231;28;19971;-62
2022/10/25 01:03:30;;;;;;;;;;;19.90;73.00;;;;;;5053714;28;19925;-62
2022/10/25 01:05:55;;;;;;;;;;;19.90;73.10;;;;;;5053673;28;20008;-62
2022/10/25 01:08:21;;;;;;;;;;;19.90;73.10;;;;;;5052617;28;19980;-62
2022/10/25 01:10:46;;;;;;;;;;;20.00;73.10;;;;;;5053517;28;20370;-62
2022/10/25 01:13:12;;;;;;;;;;;19.90;73.10;;;;;;5053297;28;19925;-62
2022/10/25 01:15:57;;;;;;;;;;;19.90;73.10;;;;;;5052375;28;20419;-62
2022/10/25 01:18:27;;;;;;;;;;;19.90;73.00;;;;;;5052881;28;20391;-62
2022/10/25 01:20:55;;;;;;;;;;;19.90;73.10;;;;;;5067847;28;20434;-62
2022/10/25 01:23:36;;;;;;;;;;;19.90;73.10;;;;;;5053007;28;19924;-62
2022/10/25 01:26:07;;;;;;;;;;;19.90;73.70;;;;;;5053453;28;19929;-63
2022/10/25 01:28:38;;;;;;;;;;;19.90;73.10;;;;;;5067783;28;20403;-62
2022/10/25 01:31:23;;;;;;;;;;;19.90;73.00;;;;;;5068892;28;19924;-62
2022/10/25 01:34:03;;;;;;;;;;;19.90;73.00;;;;;;5052237;28;19924;-62
2022/10/25 01:36:29;;;;;;;;;;;19.90;73.00;;;;;;5051969;28;19925;-62
2022/10/25 01:39:00;;;;;;;;;;;19.90;73.00;;;;;;5035433;28;19975;-62
2022/10/25 01:41:44;;;;;;;;;;;19.90;73.00;;;;;;5013321;28;19933;-62
2022/10/25 01:44:24;;;;;;;;;;;19.90;73.00;;;;;;5012785;28;19925;-62
2022/10/25 01:46:51;;;;;;;;;;;19.90;73.00;;;;;;5044972;28;19926;-62
2022/10/25 01:49:23;;;;;;;;;;;19.80;73.00;;;;;;5044083;28;19926;-62
2022/10/25 01:51:48;;;;;;;;;;;19.80;73.00;;;;;;5045134;28;20012;-62
2022/10/25 01:54:18;;;;;;;;;;;19.90;73.00;;;;;;5013185;28;19921;-63
2022/10/25 01:56:46;;;;;;;;;;;19.80;73.00;;;;;;5011981;28;20297;-62
2022/10/25 01:59:11;;;;;;;;;;;19.90;73.00;;;;;;5044749;28;19929;-63
2022/10/25 02:01:48;;;;;;;;;;;19.80;72.90;;;;;;5011191;28;20297;-62
2022/10/25 02:04:19;;;;;;;;;;;19.80;72.90;;;;;;5043316;28;20400;-63
2022/10/25 02:06:52;;;;;;;;;;;19.80;72.90;;;;;;5012710;28;20369;-63
2022/10/25 02:09:19;;;;;;;;;;;19.80;72.90;;;;;;5044377;28;19926;-63
2022/10/25 02:11:44;;;;;;;;;;;19.80;72.90;;;;;;5012249;28;19926;-62
2022/10/25 02:14:16;;;;;;;;;;;19.80;72.80;;;;;;5013043;28;19925;-63
2022/10/25 02:16:42;;;;;;;;;;;19.80;72.90;;;;;;5013017;28;19929;-63
2022/10/25 02:19:08;;;;;;;;;;;19.80;72.80;;;;;;5012084;28;19932;-62
2022/10/25 02:21:33;;;;;;;;;;;19.80;72.80;;;;;;5044712;28;20369;-63
2022/10/25 02:24:00;;;;;;;;;;;19.80;72.80;;;;;;5042712;28;19948;-63
2022/10/25 02:26:25;;;;;;;;;;;19.80;72.80;;;;;;5044444;28;19934;-63
2022/10/25 02:28:51;;;;;;;;;;;19.80;72.80;;;;;;5044974;28;19926;-63
2022/10/25 02:31:16;;;;;;;;;;;19.80;72.80;;;;;;5043618;28;20737;-62
2022/10/25 02:33:43;;;;;;;;;;;19.80;72.80;;;;;;5044483;28;19929;-63
2022/10/25 02:36:12;;;;;;;;;;;19.80;72.80;;;;;;5012791;28;19921;-62
2022/10/25 02:38:38;;;;;;;;;;;19.80;72.90;;;;;;5011991;28;19965;-63
2022/10/25 02:41:03;;;;;;;;;;;19.80;72.80;;;;;;5046429;28;19972;-63
2022/10/25 02:43:29;;;;;;;;;;;19.80;72.80;;;;;;5052321;28;20019;-62
2022/10/25 02:45:54;;;;;;;;;;;19.80;72.80;;;;;;5051570;28;19972;-63
2022/10/25 02:48:19;;;;;;;;;;;19.80;72.90;;;;;;5051779;28;20027;-63
2022/10/25 02:50:45;;;;;;;;;;;19.80;73.50;;;;;;5052101;28;19929;-63
2022/10/25 02:53:10;;;;;;;;;;;19.80;72.80;;;;;;5051484;28;19928;-63
2022/10/25 02:55:37;;;;;;;;;;;19.70;72.70;;;;;;5051943;28;19924;-63
2022/10/25 02:58:03;;;;;;;;;;;19.70;72.70;;;;;;5052421;28;19924;-63
2022/10/25 03:00:28;;;;;;;;;;;19.70;72.80;;;;;;5033751;28;20253;-63
2022/10/25 03:02:53;;;;;;;;;;;19.70;72.80;;;;;;5052299;28;19971;-63
2022/10/25 03:05:19;;;;;;;;;;;19.70;72.90;;;;;;5051819;28;19924;-63
2022/10/25 03:07:44;;;;;;;;;;;19.70;72.90;;;;;;5051086;28;19971;-62
2022/10/25 03:10:10;;;;;;;;;;;19.70;72.80;;;;;;5051637;28;19970;-63
2022/10/25 03:12:35;;;;;;;;;;;19.80;73.00;;;;;;5052340;28;20370;-63
2022/10/25 03:15:01;;;;;;;;;;;19.70;72.90;;;;;;5051464;28;19921;-63
2022/10/25 03:17:26;;;;;;;;;;;19.80;73.00;;;;;;5051698;28;19928;-62
2022/10/25 03:19:52;;;;;;;;;;;19.80;72.90;;;;;;5051965;28;20020;-62
2022/10/25 03:22:17;;;;;;;;;;;19.80;72.90;;;;;;5052565;28;19947;-63
2022/10/25 03:24:43;;;;;;;;;;;19.80;72.90;;;;;;5055392;28;20383;-63
2022/10/25 03:27:08;;;;;;;;;;;19.80;72.90;;;;;;5055222;28;19925;-63
2022/10/25 03:29:34;;;;;;;;;;;19.80;72.90;;;;;;5054829;28;19929;-63
2022/10/25 03:31:59;;;;;;;;;;;19.80;72.80;;;;;;5055755;28;19925;-63
2022/10/25 03:34:25;;;;;;;;;;;19.80;72.90;;;;;;5054531;28;20573;-63
2022/10/25 03:36:51;;;;;;;;;;;19.80;72.90;;;;;;5055094;28;19996;-63
2022/10/25 03:39:16;;;;;;;;;;;19.80;72.80;;;;;;5054901;28;20521;-63
2022/10/25 03:41:42;;;;;;;;;;;19.80;72.90;;;;;;5054841;28;19943;-63
2022/10/25 03:44:09;;;;;;;;;;;19.80;72.70;;;;;;5054208;28;20431;-63
2022/10/25 03:46:34;;;;;;;;;;;19.80;72.80;;;;;;5055131;28;20332;-63
2022/10/25 03:49:00;;;;;;;;;;;19.90;72.80;;;;;;5054484;28;20020;-63
2022/10/25 03:51:25;;;;;;;;;;;19.90;72.80;;;;;;5055048;28;19959;-62
2022/10/25 03:53:51;;;;;;;;;;;19.90;72.80;;;;;;5054792;28;19921;-62
2022/10/25 03:56:16;;;;;;;;;;;19.90;72.70;;;;;;5054256;28;20418;-62
2022/10/25 03:58:42;;;;;;;;;;;19.90;72.70;;;;;;5055286;28;20016;-62
2022/10/25 04:01:08;;;;;;;;;;;19.90;72.70;;;;;;5051238;28;20334;-62
2022/10/25 04:03:34;;;;;;;;;;;19.90;72.70;;;;;;5044814;28;20335;-62
2022/10/25 04:05:59;;;;;;;;;;;19.90;72.70;;;;;;5053763;28;19964;-62
2022/10/25 04:08:25;;;;;;;;;;;19.90;72.70;;;;;;5053812;28;19947;-63
2022/10/25 04:10:50;;;;;;;;;;;20.00;72.80;;;;;;5053995;28;19995;-62
2022/10/25 04:13:16;;;;;;;;;;;19.90;72.70;;;;;;5036740;28;19933;-62
2022/10/25 04:15:41;;;;;;;;;;;19.90;72.70;;;;;;5054632;28;19925;-63
2022/10/25 04:18:07;;;;;;;;;;;20.00;72.70;;;;;;5052771;28;20019;-62
2022/10/25 04:20:32;;;;;;;;;;;19.90;72.60;;;;;;5054274;28;19936;-62
2022/10/25 04:22:57;;;;;;;;;;;20.00;72.70;;;;;;5054430;28;20023;-62
2022/10/25 04:25:24;;;;;;;;;;;20.00;72.70;;;;;;5052534;28;20288;-63
2022/10/25 04:27:49;;;;;;;;;;;20.00;72.70;;;;;;5054597;28;19975;-63
2022/10/25 04:30:15;;;;;;;;;;;20.00;72.70;;;;;;5054043;28;19968;-62
2022/10/25 04:32:40;;;;;;;;;;;20.00;72.60;;;;;;5053410;28;19924;-62
2022/10/25 04:35:06;;;;;;;;;;;19.90;72.60;;;;;;5052162;28;19928;-63
2022/10/25 04:37:31;;;;;;;;;;;20.00;72.70;;;;;;5054125;28;19928;-62
2022/10/25 04:39:57;;;;;;;;;;;20.00;72.70;;;;;;5053298;28;19929;-62
2022/10/25 04:42:22;;;;;;;;;;;20.00;72.70;;;;;;5054296;28;19924;-63
2022/10/25 04:44:48;;;;;;;;;;;20.00;72.70;;;;;;5053638;28;19932;-62
2022/10/25 04:47:13;;;;;;;;;;;20.00;72.70;;;;;;5053371;28;20261;-62
2022/10/25 04:49:38;;;;;;;;;;;20.00;72.70;;;;;;5053251;28;19937;-62
2022/10/25 04:52:04;;;;;;;;;;;20.00;72.70;;;;;;5053170;28;20319;-62
2022/10/25 04:54:29;;;;;;;;;;;20.00;72.70;;;;;;5053555;28;19925;-62
2022/10/25 04:56:55;;;;;;;;;;;19.90;72.60;;;;;;5053318;28;19924;-63
2022/10/25 04:59:20;;;;;;;;;;;20.00;72.60;;;;;;5051789;28;19925;-63
2022/10/25 05:01:46;;;;;;;;;;;19.90;72.60;;;;;;5053936;28;20035;-62
2022/10/25 05:04:11;;;;;;;;;;;20.00;72.70;;;;;;5069088;28;19972;-63
2022/10/25 05:06:37;;;;;;;;;;;20.00;72.60;;;;;;5053216;28;19961;-63
2022/10/25 05:09:02;;;;;;;;;;;19.90;72.60;;;;;;5052661;28;19938;-63
2022/10/25 05:11:28;;;;;;;;;;;20.00;72.70;;;;;;5053505;28;19925;-63
2022/10/25 05:13:53;;;;;;;;;;;20.00;72.60;;;;;;5052704;28;19933;-63
2022/10/25 05:16:22;;;;;;;;;;;20.00;72.60;;;;;;5053318;28;20012;-62
2022/10/25 05:18:48;;;;;;;;;;;19.90;72.60;;;;;;5053220;28;19925;-62
2022/10/25 05:21:13;;;;;;;;;;;20.00;72.70;;;;;;5052257;28;20376;-63
2022/10/25 05:23:39;;;;;;;;;;;19.90;72.60;;;;;;5053341;28;19929;-62
2022/10/25 05:26:05;;;;;;;;;;;19.90;72.60;;;;;;5053403;28;20308;-63
2022/10/25 05:28:31;;;;;;;;;;;19.90;72.70;;;;;;5034602;28;20395;-63
2022/10/25 05:30:57;;;;;;;;;;;19.90;72.60;;;;;;5053177;28;19924;-62
2022/10/25 05:33:22;;;;;;;;;;;20.00;72.70;;;;;;5053459;28;19928;-62
2022/10/25 05:35:47;;;;;;;;;;;19.90;72.60;;;;;;5052683;28;19927;-62
2022/10/25 05:38:13;;;;;;;;;;;20.00;72.70;;;;;;5052665;28;19931;-62
2022/10/25 05:40:39;;;;;;;;;;;19.90;72.60;;;;;;5052092;28;19932;-63
2022/10/25 05:43:04;;;;;;;;;;;20.00;72.70;;;;;;5052562;28;20335;-62
2022/10/25 05:45:30;;;;;;;;;;;19.90;72.60;;;;;;5051603;28;19976;-63
2022/10/25 05:47:55;;;;;;;;;;;20.00;72.70;;;;;;5052502;28;19935;-63
2022/10/25 05:50:21;;;;;;;;;;;19.90;72.70;;;;;;5052457;28;20292;-62
2022/10/25 05:52:46;;;;;;;;;;;19.90;72.60;;;;;;5052654;28;19924;-62
2022/10/25 05:55:12;;;;;;;;;;;19.90;72.70;;;;;;5051880;28;20280;-62
2022/10/25 05:57:37;;;;;;;;;;;19.90;72.70;;;;;;5067342;28;19925;-63
2022/10/25 06:00:03;;;;;;;;;;;19.90;72.60;;;;;;5052901;28;19980;-62
2022/10/25 06:02:29;;;;;;;;;;;19.90;72.60;;;;;;5051830;28;19966;-63
2022/10/25 06:04:54;;;;;;;;;;;19.90;72.70;;;;;;5052813;28;20360;-62
2022/10/25 06:07:19;;;;;;;;;;;19.90;72.60;;;;;;5052432;28;19960;-64
2022/10/25 06:09:45;;;;;;;;;;;19.90;72.60;;;;;;5050990;28;19925;-63
2022/10/25 06:12:10;;;;;;;;;;;19.90;72.70;;;;;;5052362;28;20369;-63
2022/10/25 06:14:36;;;;;;;;;;;19.90;72.70;;;;;;5052509;28;19935;-63
2022/10/25 06:17:01;;;;;;;;;;;19.90;72.60;;;;;;5051937;28;19925;-63
2022/10/25 06:19:27;;;;;;;;;;;19.90;72.70;;;;;;5067511;28;20019;-63
2022/10/25 06:21:52;;;;;;;;;;;19.90;72.70;;;;;;5052125;28;19978;-63
2022/10/25 06:24:18;;;;;;;;;;;20.00;72.80;;;;;;5051667;28;19932;-63
2022/10/25 06:26:44;;;;;;;;;;;20.00;72.90;;;;;;5052831;28;19925;-63
2022/10/25 06:29:09;;;;;;;;;;;20.00;73.00;;;;;;5052262;28;19924;-63
2022/10/25 06:31:35;;;;;;;;;;;20.00;73.50;;;;;;5052000;28;19951;-63
2022/10/25 06:34:01;;;;;;;;;;;20.00;72.90;;;;;;5052468;28;19966;-63
2022/10/25 06:36:26;;;;;;;;;;;20.00;73.00;;;;;;5052283;28;19980;-62
2022/10/25 06:38:52;;;;;;;;;;;20.00;72.90;;;;;;5052127;28;19931;-63
2022/10/25 06:41:18;;;;;;;;;;;20.00;73.00;;;;;;5051866;28;20379;-62
2022/10/25 06:43:44;;;;;;;;;;;20.00;72.90;;;;;;5052328;28;20403;-62
2022/10/25 06:46:10;;;;;;;;;;;20.00;73.00;;;;;;5051352;28;19921;-63
2022/10/25 06:48:35;;;;;;;;;;;20.10;73.10;;;;;;5052411;28;19925;-63
2022/10/25 06:51:02;;;;;;;;;;;20.10;73.10;;;;;;5051891;28;19925;-63
2022/10/25 06:53:27;;;;;;;;;;;20.10;73.20;;;;;;5051465;28;19925;-63
2022/10/25 06:55:53;;;;;;;;;;;20.10;73.20;;;;;;5052205;28;19925;-63
2022/10/25 06:58:18;;;;;;;;;;;20.10;73.30;;;;;;5054671;28;20380;-64
2022/10/25 07:00:44;;;;;;;;;;;20.10;73.30;;;;;;5055515;28;19925;-63
2022/10/25 07:03:09;;;;;;;;;;;20.10;73.20;;;;;;5055525;28;19955;-63
2022/10/25 07:05:35;;;;;;;;;;;20.10;73.20;;;;;;5055319;28;19924;-63
2022/10/25 07:08:00;;;;;;;;;;;20.20;73.30;;;;;;5056079;28;19925;-63
2022/10/25 07:10:26;;;;;;;;;;;20.20;73.30;;;;;;5055697;28;19933;-63
2022/10/25 07:12:51;;;;;;;;;;;20.20;73.30;;;;;;5055313;28;19927;-63
2022/10/25 07:15:17;;;;;;;;;;;20.20;73.20;;;;;;5055634;28;20001;-63
2022/10/25 07:17:42;;;;;;;;;;;20.20;73.30;;;;;;5056016;28;20392;-63
2022/10/25 07:20:08;;;;;;;;;;;20.20;73.30;;;;;;5054465;28;19932;-63
2022/10/25 07:22:33;;;;;;;;;;;20.20;73.20;;;;;;5055952;28;19925;-63
2022/10/25 07:24:59;;;;;;;;;;;20.20;73.30;;;;;;5055719;28;20019;-63
2022/10/25 07:27:24;;;;;;;;;;;20.30;73.30;;;;;;5054407;28;19924;-63
2022/10/25 07:29:50;;;;;;;;;;;20.20;73.30;;;;;;5055612;28;20074;-63
2022/10/25 07:32:15;;;;;;;;;;;20.30;73.30;;;;;;5054816;28;19932;-63
2022/10/25 07:34:41;;;;;;;;;;;20.30;73.20;;;;;;5054160;28;20438;-63
2022/10/25 07:37:06;;;;;;;;;;;20.30;73.30;;;;;;5054141;28;19925;-63
2022/10/25 07:39:32;;;;;;;;;;;20.30;73.20;;;;;;5054832;28;20381;-63
2022/10/25 07:41:57;;;;;;;;;;;20.30;73.30;;;;;;5054943;28;19932;-67
2022/10/25 07:44:24;;;;;;;;;;;20.40;73.40;;;;;;5054270;28;20280;-64
2022/10/25 07:46:51;;;;;;;;;;;20.40;73.40;;;;;;5055169;28;19925;-64
2022/10/25 07:49:16;;;;;;;;;;;20.40;73.30;;;;;;5054266;28;19928;-63
2022/10/25 07:51:41;;;;;;;;;;;20.40;73.40;;;;;;5055011;28;19931;-64
2022/10/25 07:54:07;;;;;;;;;;;20.40;73.30;;;;;;5053878;28;19935;-63
2022/10/25 07:56:32;;;;;;;;;;;20.40;73.30;;;;;;5054307;28;20327;-64
2022/10/25 07:58:58;;;;;;;;;;;20.40;73.30;;;;;;5054609;28;20023;-65
2022/10/25 08:01:24;;;;;;;;;;;20.40;73.30;;;;;;5054348;28;20019;-65
2022/10/25 08:03:50;;;;;;;;;;;20.50;73.30;;;;;;5048163;28;19925;-65
2022/10/25 08:06:16;;;;;;;;;;;20.50;73.20;;;;;;5054422;28;19925;-62
2022/10/25 08:08:41;;;;;;;;;;;20.50;73.20;;;;;;5054049;28;19979;-63
2022/10/25 08:11:07;;;;;;;;;;;20.50;73.20;;;;;;5048144;28;19928;-63
2022/10/25 08:13:35;;;;;;;;;;;20.50;73.10;;;;;;5040766;28;19971;-63
2022/10/25 08:16:01;;;;;;;;;;;20.50;73.10;;;;;;5034914;28;19925;-64
2022/10/25 08:18:26;;;;;;;;;;;20.50;73.10;;;;;;5040721;28;19986;-63
2022/10/25 08:20:52;;;;;;;;;;;20.50;73.10;;;;;;5039508;28;20382;-63
2022/10/25 08:23:17;;;;;;;;;;;20.50;73.00;;;;;;5038863;28;20388;-64
2022/10/25 08:25:43;;;;;;;;;;;20.50;73.00;;;;;;5035180;28;19925;-63
2022/10/25 08:28:08;;;;;;;;;;;20.50;73.00;;;;;;5047261;28;20062;-63
2022/10/25 08:30:34;;;;;;;;;;;20.50;73.10;;;;;;5043900;28;19925;-64
2022/10/25 08:32:59;;;;;;;;;;;20.50;73.10;;;;;;5053704;28;19936;-64
2022/10/25 08:35:25;;;;;;;;;;;20.60;73.20;;;;;;5035779;28;19972;-63
2022/10/25 08:37:50;;;;;;;;;;;20.60;73.10;;;;;;5053283;28;20011;-64
2022/10/25 08:40:20;;;;;;;;;;;20.60;73.10;;;;;;5053771;28;19933;-64
2022/10/25 08:43:04;;;;;;;;;;;20.50;73.10;;;;;;5053325;28;19976;-63
2022/10/25 08:45:34;;;;;;;;;;;20.50;73.10;;;;;;5052946;28;19986;-64
2022/10/25 08:48:00;;;;;;;;;;;20.50;73.20;;;;;;5039717;28;19931;-64
2022/10/25 08:50:28;;;;;;;;;;;20.50;73.10;;;;;;5070411;28;19928;-64
2022/10/25 08:52:54;;;;;;;;;;;20.50;73.10;;;;;;5068545;28;20415;-64
2022/10/25 08:55:33;;;;;;;;;;;20.50;73.20;;;;;;5069071;28;19931;-64
2022/10/25 08:57:59;;;;;;;;;;;20.50;73.30;;;;;;5053076;28;20376;-62
2022/10/25 09:00:25;;;;;;;;;;;20.50;73.30;;;;;;5053595;28;19935;-63
2022/10/25 09:02:54;;;;;;;;;;;20.60;73.40;;;;;;5053088;28;19974;-62
2022/10/25 09:05:29;;;;;;;;;;;20.60;73.40;;;;;;5068156;28;19960;-63
2022/10/25 09:08:00;;;;;;;;;;;20.60;73.50;;;;;;5051142;28;19925;-64
2022/10/25 09:10:44;;;;;;;;;;;20.60;73.40;;;;;;5052860;28;19936;-64
2022/10/25 09:13:14;;;;;;;;;;;20.60;73.40;;;;;;5054929;28;19929;-63
2022/10/25 09:15:50;;;;;;;;;;;20.60;73.40;;;;;;5068759;28;19931;-62
2022/10/25 09:18:16;;;;;;;;;;;20.60;73.40;;;;;;5067907;28;19925;-62
2022/10/25 09:20:46;;;;;;;;;;;20.60;73.60;;;;;;5051162;28;19925;-62
2022/10/25 09:23:18;;;;;;;;;;;20.60;73.50;;;;;;5065691;28;19924;-62
2022/10/25 09:25:49;;;;;;;;;;;20.60;73.60;;;;;;5052881;28;20636;-62
2022/10/25 09:28:20;;;;;;;;;;;20.60;73.50;;;;;;5052180;28;19925;-63
2022/10/25 09:30:45;;;;;;;;;;;20.60;73.50;;;;;;5053626;28;19932;-63
2022/10/25 09:33:12;;;;;;;;;;;20.70;73.50;;;;;;5052283;28;19924;-63
2022/10/25 09:35:40;;;;;;;;;;;20.60;73.40;;;;;;5069006;28;19928;-63
2022/10/25 09:38:10;;;;;;;;;;;20.70;73.40;;;;;;5053310;28;19928;-63
2022/10/25 09:40:43;;;;;;;;;;;20.60;73.50;;;;;;5067605;28;20376;-62
2022/10/25 09:43:15;;;;;;;;;;;20.70;73.50;;;;;;5062077;28;19925;-63
2022/10/25 09:45:50;;;;;;;;;;;20.70;73.50;;;;;;5065206;28;19925;-63
2022/10/25 09:48:26;;;;;;;;;;;20.60;73.50;;;;;;5048692;28;19975;-63
2022/10/25 09:51:12;;;;;;;;;;;20.60;73.20;;;;;;5065677;28;19924;-63
2022/10/25 09:53:39;;;;;;;;;;;20.60;73.30;;;;;;5051654;28;19933;-63
2022/10/25 09:56:04;;;;;;;;;;;20.60;73.40;;;;;;5066211;28;20008;-62
2022/10/25 09:58:31;;;;;;;;;;;20.60;73.40;;;;;;5051979;28;19983;-64
2022/10/25 10:01:00;;;;;;;;;;;20.60;73.40;;;;;;5068130;28;19956;-63
2022/10/25 10:03:29;;;;;;;;;;;20.60;73.50;;;;;;5051390;28;20318;-64
2022/10/25 10:05:56;;;;;;;;;;;20.60;73.60;;;;;;5052298;28;20012;-63
2022/10/25 10:08:25;;;;;;;;;;;20.60;74.20;;;;;;5064770;28;19932;-63
2022/10/25 10:10:51;;;;;;;;;;;20.60;73.70;;;;;;5051303;28;20011;-63
2022/10/25 10:13:22;;;;;;;;;;;20.60;73.70;;;;;;5052051;28;20372;-64
2022/10/25 10:15:55;;;;;;;;;;;20.60;73.70;;;;;;5067440;28;19978;-63
2022/10/25 10:18:30;;;;;;;;;;;20.60;73.70;;;;;;5065872;28;19932;-63
2022/10/25 10:21:12;;;;;;;;;;;20.60;73.70;;;;;;5051802;28;19948;-63
2022/10/25 10:23:41;;;;;;;;;;;20.60;73.70;;;;;;5049236;28;19925;-63
2022/10/25 10:26:11;;;;;;;;;;;20.60;73.80;;;;;;5066648;28;20007;-63
2022/10/25 10:28:37;;;;;;;;;;;20.60;73.80;;;;;;5067063;28;20385;-63
2022/10/25 10:31:02;;;;;;;;;;;20.60;73.80;;;;;;5051131;28;19925;-63
2022/10/25 10:33:29;;;;;;;;;;;20.60;73.80;;;;;;5070886;28;19940;-63
2022/10/25 10:35:54;;;;;;;;;;;20.60;73.80;;;;;;5052859;28;19925;-64
2022/10/25 10:38:24;;;;;;;;;;;20.60;73.80;;;;;;5050931;28;20422;-63
2022/10/25 10:40:50;;;;;;;;;;;20.60;73.80;;;;;;5042019;28;19960;-63
2022/10/25 10:43:24;;;;;;;;;;;20.60;73.70;;;;;;5047521;28;19924;-63
2022/10/25 10:45:50;;;;;;;;;;;20.60;73.60;;;;;;5055869;28;19924;-64
2022/10/25 10:48:20;;;;;;;;;;;20.60;73.60;;;;;;5054949;28;19971;-63
2022/10/25 10:50:48;;;;;;;;;;;20.60;73.60;;;;;;5054993;28;20002;-66
2022/10/25 10:53:21;;;;;;;;;;;20.60;73.60;;;;;;5037990;28;19943;-63
2022/10/25 10:55:46;;;;;;;;;;;20.60;73.60;;;;;;5056126;28;20380;-64
2022/10/25 10:58:13;;;;;;;;;;;20.50;73.50;;;;;;5054880;28;19925;-64
2022/10/25 11:00:39;;;;;;;;;;;20.60;73.60;;;;;;5056036;28;19924;-64
2022/10/25 11:03:04;;;;;;;;;;;20.50;73.50;;;;;;5038150;28;19948;-66
2022/10/25 11:05:31;;;;;;;;;;;20.50;73.50;;;;;;5055178;28;19921;-64
2022/10/25 11:08:00;;;;;;;;;;;20.50;73.50;;;;;;5036791;28;20074;-67
2022/10/25 11:10:32;;;;;;;;;;;20.50;73.50;;;;;;5054798;28;19936;-65
2022/10/25 11:13:07;;;;;;;;;;;20.50;73.50;;;;;;5053826;28;19929;-65
2022/10/25 11:15:43;;;;;;;;;;;20.50;73.40;;;;;;5068769;28;19947;-65
2022/10/25 11:18:08;;;;;;;;;;;20.50;73.50;;;;;;5052615;28;19924;-65
2022/10/25 11:20:40;;;;;;;;;;;20.50;73.50;;;;;;5070262;28;19925;-65
2022/10/25 11:23:05;;;;;;;;;;;20.50;73.40;;;;;;5055290;28;20015;-65
2022/10/25 11:25:42;;;;;;;;;;;20.50;73.40;;;;;;5070508;28;19983;-66
2022/10/25 11:28:25;;;;;;;;;;;20.50;73.40;;;;;;5054514;28;19933;-65
2022/10/25 11:31:01;;;;;;;;;;;20.50;73.50;;;;;;5052807;28;19925;-65
2022/10/25 11:33:36;;;;;;;;;;;20.50;73.50;;;;;;5069158;28;20377;-65
2022/10/25 11:36:05;;;;;;;;;;;20.50;73.40;;;;;;5054861;28;19925;-66
2022/10/25 11:38:34;;;;;;;;;;;20.50;73.40;;;;;;5067018;28;20409;-65
2022/10/25 11:41:05;;;;;;;;;;;20.50;73.40;;;;;;5053765;28;20373;-66
2022/10/25 11:43:33;;;;;;;;;;;20.50;73.40;;;;;;5054923;28;19924;-66
2022/10/25 11:46:02;;;;;;;;;;;20.50;73.50;;;;;;5053973;28;19924;-65
2022/10/25 11:48:34;;;;;;;;;;;20.50;73.60;;;;;;5069136;28;19982;-65
2022/10/25 11:51:18;;;;;;;;;;;20.50;73.50;;;;;;5070301;28;19974;-66
2022/10/25 11:53:56;;;;;;;;;;;20.50;73.50;;;;;;5054411;28;19959;-65
2022/10/25 11:56:40;;;;;;;;;;;20.50;73.60;;;;;;5069976;28;19925;-65
2022/10/25 11:59:16;;;;;;;;;;;20.50;73.60;;;;;;5055161;28;19925;-65
2022/10/25 12:01:48;;;;;;;;;;;20.50;73.60;;;;;;5070012;28;19925;-64
2022/10/25 12:04:30;;;;;;;;;;;20.50;73.60;;;;;;5054565;28;19924;-64
2022/10/25 12:06:56;;;;;;;;;;;20.50;73.40;;;;;;5054481;28;19966;-64
2022/10/25 12:09:40;;;;;;;;;;;20.60;73.60;;;;;;5052547;28;19928;-65
2022/10/25 12:12:08;;;;;;;;;;;20.60;74.00;;;;;;5034209;28;19972;-64
2022/10/25 12:14:35;;;;;;;;;;;20.60;73.40;;;;;;5034746;28;19987;-64
2022/10/25 12:17:01;;;;;;;;;;;20.60;73.50;;;;;;5049683;28;19925;-62
2022/10/25 12:19:27;;;;;;;;;;;20.60;73.40;;;;;;5034419;28;20271;-62
2022/10/25 12:22:00;;;;;;;;;;;20.60;73.30;;;;;;5068702;28;20095;-61
2022/10/25 12:24:28;;;;;;;;;;;20.60;73.30;;;;;;5053992;28;20334;-64
2022/10/25 12:26:54;;;;;;;;;;;20.60;73.20;;;;;;5050055;28;20047;-65
2022/10/25 12:29:21;;;;;;;;;;;20.60;73.30;;;;;;5033797;28;20048;-66
2022/10/25 12:31:51;;;;;;;;;;;20.60;73.20;;;;;;5053203;28;20276;-67
2022/10/25 12:34:21;;;;;;;;;;;20.60;73.20;;;;;;5035590;28;19925;-67
2022/10/25 12:36:48;;;;;;;;;;;20.50;73.00;;;;;;5053135;28;19925;-67
2022/10/25 12:39:24;;;;;;;;;;;20.50;73.30;;;;;;5068846;28;19947;-67
2022/10/25 12:42:00;;;;;;;;;;;20.50;73.30;;;;;;5069287;28;19924;-63
2022/10/25 12:44:32;;;;;;;;;;;20.60;73.40;;;;;;5050546;28;19929;-64
2022/10/25 12:47:03;;;;;;;;;;;20.60;73.40;;;;;;5068494;28;20086;-63
2022/10/25 12:49:47;;;;;;;;;;;20.50;73.30;;;;;;5052634;28;19928;-63
2022/10/25 12:52:24;;;;;;;;;;;20.60;73.50;;;;;;5066711;28;19932;-64
2022/10/25 12:54:58;;;;;;;;;;;20.60;73.50;;;;;;5066416;28;20338;-63
2022/10/25 12:57:30;;;;;;;;;;;20.60;73.50;;;;;;5066564;28;19925;-63
2022/10/25 13:00:28;;;;;;;;;;;20.60;73.50;;;;;;5053059;28;19950;-63
2022/10/25 13:02:56;;;;;;;;;;;20.60;73.50;;;;;;5019795;28;19925;-63
2022/10/25 13:05:33;;;;;;;;;;;20.60;73.60;;;;;;5052663;28;19925;-62
2022/10/25 13:08:02;;;;;;;;;;;20.60;73.50;;;;;;5053277;28;19928;-62
2022/10/25 13:10:29;;;;;;;;;;;20.60;73.50;;;;;;5068838;28;19925;-62
2022/10/25 13:12:59;;;;;;;;;;;20.60;73.50;;;;;;5068211;28;19931;-63
2022/10/25 13:15:24;;;;;;;;;;;20.60;73.50;;;;;;5057946;28;19928;-61
2022/10/25 13:18:13;;;;;;;;;;;20.60;73.50;;;;;;5033500;28;19925;-62
2022/10/25 13:20:43;;;;;;;;;;;20.60;73.40;;;;;;5023005;28;19932;-61
2022/10/25 13:23:27;;;;;;;;;;;20.60;73.40;;;;;;5039065;28;19925;-62
2022/10/25 13:25:53;;;;;;;;;;;20.60;73.30;;;;;;5051785;28;19929;-63
2022/10/25 13:28:25;;;;;;;;;;;20.60;73.30;;;;;;5053030;28;19950;-66
2022/10/25 13:30:51;;;;;;;;;;;20.60;73.30;;;;;;5035454;28;19932;-64
2022/10/25 13:33:22;;;;;;;;;;;20.60;73.20;;;;;;5034491;28;19925;-65
2022/10/25 13:35:48;;;;;;;;;;;20.60;73.20;;;;;;5043947;28;19970;-66
2022/10/25 13:38:19;;;;;;;;;;;20.70;74.00;;;;;;5033166;28;20023;-67
2022/10/25 13:41:02;;;;;;;;;;;20.70;73.40;;;;;;5032086;28;20349;-66
2022/10/25 13:43:28;;;;;;;;;;;20.70;73.50;;;;;;5032995;28;20004;-68
2022/10/25 13:45:54;;;;;;;;;;;20.80;73.50;;;;;;5033233;28;19925;-66
2022/10/25 13:48:37;;;;;;;;;;;20.80;73.40;;;;;;5032138;28;19945;-66
2022/10/25 13:51:08;;;;;;;;;;;20.80;73.40;;;;;;5048156;28;20296;-67
2022/10/25 13:53:36;;;;;;;;;;;20.80;73.30;;;;;;5047688;28;19925;-64
2022/10/25 13:56:03;;;;;;;;;;;20.90;73.20;;;;;;5048759;28;19979;-61
2022/10/25 13:58:29;;;;;;;;;;;20.90;73.10;;;;;;5052576;28;19925;-65
2022/10/25 14:01:17;;;;;;;;;;;20.90;73.00;;;;;;5050793;28;19925;-62
2022/10/25 14:03:55;;;;;;;;;;;20.90;73.10;;;;;;5035680;28;20442;-62
2022/10/25 14:06:30;;;;;;;;;;;20.90;73.10;;;;;;5065397;28;19927;-63
2022/10/25 14:09:14;;;;;;;;;;;21.00;73.10;;;;;;5064271;28;19971;-63
2022/10/25 14:11:43;;;;;;;;;;;21.00;73.10;;;;;;5052566;28;20361;-63
2022/10/25 14:14:27;;;;;;;;;;;21.00;73.10;;;;;;5051635;28;19932;-63
2022/10/25 14:16:52;;;;;;;;;;;21.00;73.10;;;;;;5052244;28;19940;-62
2022/10/25 14:19:37;;;;;;;;;;;21.00;73.00;;;;;;5052512;28;20000;-64
2022/10/25 14:22:03;;;;;;;;;;;21.10;73.00;;;;;;5067139;28;20304;-64
2022/10/25 14:24:29;;;;;;;;;;;21.10;73.00;;;;;;5052376;28;19932;-64